Terminal Aerodrome Forecast
Issued by NWS

Current Version | Previous Version | Text Only | Print | Product List | Glossary On
Versions: 1 2 3 4 5 6 7 8 9 10 11 12
054
FTUS44 KEPZ 302320
TAFDMN
TAF
KDMN 302320Z 0100/0124 20008KT P6SM VCTS SCT070CB SCT140 OVC200
     FM010600 24005KT P6SM SCT060 BKN120 BKN200
     FM011200 VRB04KT P6SM VCSH BKN060 BKN100 OVC200
     FM011800 24010KT P6SM SCT060 BKN100 BKN200=

USA.gov is the U.S. government's official web portal to all federal, state and local government web resources and services.